Terminal Aerodrome Forecast
Issued by NWS Caribou, ME

Home | Current Version | Previous Version | Text Only | Print | Product List | Glossary On
Versions: 1 2 3 4 5 6 7 8 9 10 11 12 13 14 15 16
000
FTUS41 KCAR 222300
TAFCAR
TAF
KCAR 222320Z 2300/2324 00000KT P6SM BKN040 OVC080
     FM230900 36003KT P6SM BKN025
     FM231200 02005KT P6SM SCT035 BKN070=

USA.gov is the U.S. government's official web portal to all federal, state and local government web resources and services.